createdAt,value
2019-02-26T00:00:42.383Z,0.00
2019-02-26T00:01:37.474Z,0.00
2019-02-26T00:02:38.276Z,0.00
2019-02-26T00:03:37.471Z,0.00
2019-02-26T00:04:37.373Z,0.00
2019-02-26T00:05:37.517Z,0.00
2019-02-26T00:06:37.369Z,0.00
2019-02-26T00:07:37.354Z,0.00
2019-02-26T00:08:37.258Z,0.00
2019-02-26T00:09:37.411Z,0.00
2019-02-26T00:10:39.134Z,0.00
2019-02-26T00:11:38.407Z,0.00
2019-02-26T00:12:37.284Z,0.00
2019-02-26T00:13:39.225Z,0.00
2019-02-26T00:14:37.250Z,0.00
2019-02-26T00:15:40.491Z,0.00
2019-02-26T00:16:39.740Z,0.00
2019-02-26T00:17:40.456Z,0.00
2019-02-26T00:18:37.175Z,0.00
2019-02-26T00:19:37.138Z,0.00
2019-02-26T00:20:39.092Z,0.00
2019-02-26T00:21:37.693Z,0.00
2019-02-26T00:22:38.888Z,0.00
2019-02-26T00:23:37.690Z,0.00
2019-02-26T00:24:37.702Z,0.00
2019-02-26T00:25:37.182Z,0.00
2019-02-26T00:26:38.454Z,0.00
2019-02-26T00:27:37.012Z,0.00
2019-02-26T00:28:39.100Z,0.00
2019-02-26T00:29:37.035Z,0.00
2019-02-26T00:30:37.933Z,0.00
2019-02-26T00:31:38.706Z,0.00
2019-02-26T00:32:38.346Z,0.00
2019-02-26T00:33:36.896Z,0.00
2019-02-26T00:34:38.588Z,0.00
2019-02-26T00:35:36.947Z,0.00
2019-02-26T00:36:38.170Z,0.00
2019-02-26T00:37:36.869Z,0.00
2019-02-26T00:38:37.768Z,0.00
2019-02-26T00:39:36.851Z,0.00
2019-02-26T00:40:38.777Z,0.00
2019-02-26T00:41:36.862Z,0.00
2019-02-26T00:42:36.740Z,0.00
2019-02-26T00:43:37.014Z,0.00
2019-02-26T00:44:37.298Z,0.00
2019-02-26T00:45:44.378Z,0.00
2019-02-26T00:47:33.891Z,0.00
2019-02-26T00:48:31.521Z,0.00
2019-02-26T00:49:34.807Z,0.00
2019-02-26T00:50:31.014Z,0.00
2019-02-26T00:51:30.121Z,0.00
2019-02-26T00:52:30.502Z,0.00
2019-02-26T00:53:30.742Z,0.00
2019-02-26T00:54:31.931Z,0.00
2019-02-26T00:55:32.170Z,0.00
2019-02-26T00:56:36.365Z,0.00
2019-02-26T00:57:31.718Z,0.00
2019-02-26T00:58:32.072Z,0.00
2019-02-26T00:59:30.101Z,0.00
2019-02-26T01:00:30.877Z,0.00
2019-02-26T01:01:34.737Z,0.00
2019-02-26T01:02:29.924Z,0.00
2019-02-26T01:03:29.895Z,0.00
2019-02-26T01:04:31.681Z,0.00
2019-02-26T01:05:29.753Z,0.00
2019-02-26T01:06:33.420Z,0.00
2019-02-26T01:07:32.588Z,0.00
2019-02-26T01:08:29.921Z,0.00
2019-02-26T01:09:31.735Z,0.00
2019-02-26T01:10:29.699Z,0.00
2019-02-26T01:11:30.273Z,0.00
2019-02-26T01:12:30.978Z,0.00
2019-02-26T01:13:30.155Z,0.00
2019-02-26T01:14:29.666Z,0.00
2019-02-26T01:15:29.756Z,0.00
2019-02-26T01:16:31.386Z,0.00
2019-02-26T01:17:31.098Z,0.00
2019-02-26T01:18:29.621Z,0.00
2019-02-26T01:19:29.789Z,0.00
2019-02-26T01:20:31.502Z,0.00
2019-02-26T01:21:31.135Z,0.00
2019-02-26T01:22:31.083Z,0.00
2019-02-26T01:23:32.054Z,0.00
2019-02-26T01:24:31.025Z,0.00
2019-02-26T01:25:29.638Z,0.00
2019-02-26T01:26:31.134Z,0.00
2019-02-26T01:27:29.495Z,0.00
2019-02-26T01:28:29.646Z,0.00
2019-02-26T01:29:29.944Z,0.00
2019-02-26T01:30:35.662Z,0.00
2019-02-26T01:31:31.314Z,0.00
2019-02-26T01:32:29.470Z,0.00
2019-02-26T01:33:30.304Z,0.00
2019-02-26T01:34:29.467Z,0.00
2019-02-26T01:35:30.778Z,0.00
2019-02-26T01:36:30.173Z,0.00
2019-02-26T01:37:29.953Z,0.00
2019-02-26T01:38:29.349Z,0.00
2019-02-26T01:39:29.294Z,0.00
2019-02-26T01:40:29.309Z,0.00
2019-02-26T01:41:29.374Z,0.00
2019-02-26T01:42:31.212Z,0.00
2019-02-26T01:43:30.672Z,0.00
2019-02-26T01:44:32.326Z,0.00
2019-02-26T01:45:32.376Z,0.00
2019-02-26T01:46:30.085Z,0.00
2019-02-26T01:47:29.167Z,0.00
2019-02-26T01:48:29.997Z,0.00
2019-02-26T01:49:31.073Z,0.00
2019-02-26T01:50:30.878Z,0.00
2019-02-26T01:51:29.091Z,0.00
2019-02-26T01:52:29.172Z,0.00
2019-02-26T01:53:29.000Z,0.00
2019-02-26T01:54:30.498Z,0.00
2019-02-26T01:55:29.141Z,0.00
2019-02-26T01:56:30.803Z,0.00
2019-02-26T01:57:28.983Z,0.00
2019-02-26T01:59:33.578Z,0.00
2019-02-26T02:00:29.208Z,0.00
2019-02-26T02:01:29.649Z,0.00
2019-02-26T02:02:30.279Z,0.00
2019-02-26T02:03:30.221Z,0.00
2019-02-26T02:04:34.204Z,0.00
2019-02-26T02:05:30.893Z,0.00
2019-02-26T02:06:30.333Z,0.00
2019-02-26T02:07:30.593Z,0.00
2019-02-26T02:08:31.767Z,0.00
2019-02-26T02:09:28.881Z,0.00
2019-02-26T02:10:28.702Z,0.00
2019-02-26T02:11:31.001Z,0.00
2019-02-26T02:12:30.124Z,0.00
2019-02-26T02:13:30.649Z,0.00
2019-02-26T02:14:33.342Z,0.00
2019-02-26T02:15:28.713Z,0.00
2019-02-26T02:16:29.593Z,0.00
2019-02-26T02:17:30.926Z,0.00
2019-02-26T02:18:29.877Z,0.00
2019-02-26T02:19:30.144Z,0.00
2019-02-26T02:20:29.341Z,0.00
2019-02-26T02:21:30.953Z,0.00
2019-02-26T02:22:29.604Z,0.00
2019-02-26T02:23:30.252Z,0.00
2019-02-26T02:24:28.616Z,0.00
2019-02-26T02:25:31.063Z,0.00
2019-02-26T02:26:29.307Z,0.00
2019-02-26T02:27:31.052Z,0.00
2019-02-26T02:28:29.227Z,0.00
2019-02-26T02:29:28.630Z,0.00
2019-02-26T02:30:31.406Z,0.00
2019-02-26T02:31:43.343Z,0.00
2019-02-26T02:32:39.537Z,0.00
2019-02-26T02:33:30.004Z,0.00
2019-02-26T02:34:30.171Z,0.00
2019-02-26T02:35:31.166Z,0.00
2019-02-26T02:36:28.470Z,0.00
2019-02-26T02:37:30.006Z,0.00
2019-02-26T02:38:28.297Z,0.00
2019-02-26T02:39:29.322Z,0.00
2019-02-26T02:40:28.184Z,0.00
2019-02-26T02:41:33.569Z,0.00
2019-02-26T02:42:28.246Z,0.00
2019-02-26T02:43:28.843Z,0.00
2019-02-26T02:44:28.920Z,0.00
2019-02-26T02:45:32.733Z,0.00
2019-02-26T02:47:30.719Z,0.00
2019-02-26T02:48:28.298Z,0.00
2019-02-26T02:49:36.268Z,0.00
2019-02-26T02:50:28.101Z,0.00
2019-02-26T02:51:30.685Z,0.00
2019-02-26T02:52:30.412Z,0.00
2019-02-26T02:53:29.806Z,0.00
2019-02-26T02:54:30.865Z,0.00
2019-02-26T02:55:28.002Z,0.00
2019-02-26T02:56:33.400Z,0.00
2019-02-26T02:57:30.010Z,0.00
2019-02-26T02:58:28.649Z,0.00
2019-02-26T02:59:34.068Z,0.00
2019-02-26T03:00:32.263Z,0.00
2019-02-26T03:01:30.818Z,0.00
2019-02-26T03:02:28.678Z,0.00
2019-02-26T03:03:27.983Z,0.00
2019-02-26T03:04:29.068Z,0.00
2019-02-26T03:05:31.357Z,0.00
2019-02-26T03:06:30.173Z,0.00
2019-02-26T03:07:38.898Z,0.00
2019-02-26T03:08:27.833Z,0.00
2019-02-26T03:09:27.915Z,0.00
2019-02-26T03:10:30.834Z,0.00
2019-02-26T03:12:27.751Z,0.00
2019-02-26T03:13:28.060Z,0.00
2019-02-26T03:14:29.989Z,0.00
2019-02-26T03:15:33.150Z,0.00
2019-02-26T03:16:32.359Z,0.00
2019-02-26T03:17:27.646Z,0.00
2019-02-26T03:18:34.107Z,0.00
2019-02-26T03:19:29.628Z,0.00
2019-02-26T03:20:28.651Z,0.00
2019-02-26T03:21:30.627Z,0.00
2019-02-26T03:22:28.327Z,0.00
2019-02-26T03:23:27.442Z,0.00
2019-02-26T03:24:30.636Z,0.00
2019-02-26T03:25:29.123Z,0.00
2019-02-26T03:27:28.383Z,0.00
2019-02-26T03:28:44.426Z,0.00
2019-02-26T03:29:27.471Z,0.00
2019-02-26T03:30:32.801Z,0.00
2019-02-26T03:31:33.881Z,0.00
2019-02-26T03:32:27.424Z,0.00
2019-02-26T03:33:27.294Z,0.00
2019-02-26T03:34:27.235Z,0.00
2019-02-26T03:35:27.515Z,0.00
2019-02-26T03:36:45.077Z,0.00
2019-02-26T03:37:28.794Z,0.00
2019-02-26T03:38:28.875Z,0.00
2019-02-26T03:39:27.493Z,0.00
2019-02-26T03:40:29.971Z,0.00
2019-02-26T03:41:31.248Z,0.00
2019-02-26T03:42:27.212Z,0.00
2019-02-26T03:43:28.816Z,0.00
2019-02-26T03:44:30.241Z,0.00
2019-02-26T03:45:27.405Z,0.00
2019-02-26T03:46:27.350Z,0.00
2019-02-26T03:47:27.263Z,0.00
2019-02-26T03:48:38.273Z,0.00
2019-02-26T03:49:31.822Z,0.00
2019-02-26T03:50:28.400Z,0.00
2019-02-26T03:51:28.654Z,0.00
2019-02-26T03:52:48.235Z,0.00
2019-02-26T03:53:30.413Z,0.00
2019-02-26T03:54:27.075Z,0.00
2019-02-26T03:55:31.733Z,0.00
2019-02-26T03:56:27.079Z,0.00
2019-02-26T03:57:27.236Z,0.00
2019-02-26T03:58:41.856Z,0.00
2019-02-26T03:59:29.726Z,0.00
2019-02-26T04:00:27.060Z,0.00
2019-02-26T04:01:26.912Z,0.00
2019-02-26T04:02:43.305Z,0.00
2019-02-26T04:03:26.988Z,0.00
2019-02-26T04:04:30.472Z,0.00
2019-02-26T04:05:27.869Z,0.00
2019-02-26T04:06:26.841Z,0.00
2019-02-26T04:07:28.352Z,0.00
2019-02-26T04:08:27.773Z,0.00
2019-02-26T04:09:26.949Z,0.00
2019-02-26T04:13:05.312Z,0.00
2019-02-26T04:14:00.454Z,0.00
2019-02-26T04:15:00.790Z,0.00
2019-02-26T04:17:03.018Z,0.00
2019-02-26T04:18:00.310Z,0.00
2019-02-26T04:19:00.203Z,0.00
2019-02-26T04:20:02.689Z,0.00
2019-02-26T04:21:03.693Z,0.00
2019-02-26T04:22:00.288Z,0.00
2019-02-26T04:23:00.141Z,0.00
2019-02-26T04:24:01.061Z,0.00
2019-02-26T04:25:04.569Z,0.00
2019-02-26T04:26:01.757Z,0.00
2019-02-26T04:27:00.208Z,0.00
2019-02-26T04:28:02.626Z,0.00
2019-02-26T04:29:02.793Z,0.00
2019-02-26T04:29:59.959Z,0.00
2019-02-26T04:31:02.473Z,0.00
2019-02-26T04:31:59.977Z,0.00
2019-02-26T04:33:06.567Z,0.00
2019-02-26T04:34:04.939Z,0.00
2019-02-26T04:35:02.462Z,0.00
2019-02-26T04:36:00.102Z,0.00
2019-02-26T04:37:01.570Z,0.00
2019-02-26T04:38:01.076Z,0.00
2019-02-26T04:39:00.831Z,0.00
2019-02-26T04:40:01.598Z,0.00
2019-02-26T04:41:00.448Z,0.00
2019-02-26T04:41:59.929Z,0.00
2019-02-26T04:43:01.854Z,0.00
2019-02-26T04:44:01.285Z,0.00
2019-02-26T04:45:04.919Z,0.00
2019-02-26T04:46:04.643Z,0.00
2019-02-26T04:47:00.383Z,0.00
2019-02-26T04:48:06.508Z,0.00
2019-02-26T04:49:02.233Z,0.00
2019-02-26T04:50:00.677Z,0.00
2019-02-26T04:51:00.483Z,0.00
2019-02-26T04:52:02.051Z,0.00
2019-02-26T04:53:02.039Z,0.00
2019-02-26T04:54:02.012Z,0.00
2019-02-26T04:55:01.384Z,0.00
2019-02-26T04:56:00.456Z,0.00
2019-02-26T04:56:59.585Z,0.00
2019-02-26T04:57:59.480Z,0.00
2019-02-26T04:58:59.541Z,0.00
2019-02-26T05:00:01.312Z,0.00
2019-02-26T05:01:00.315Z,0.00
2019-02-26T05:01:59.388Z,4.00
2019-02-26T05:02:59.590Z,4.00
2019-02-26T05:03:59.446Z,4.00
2019-02-26T05:04:59.501Z,0.00
2019-02-26T05:06:00.186Z,0.00
2019-02-26T05:06:59.412Z,4.00
2019-02-26T05:08:07.672Z,4.00
2019-02-26T05:09:02.886Z,4.00
2019-02-26T05:10:01.858Z,4.00
2019-02-26T05:11:00.021Z,8.00
2019-02-26T05:12:00.444Z,8.00
2019-02-26T05:13:09.914Z,12.00
2019-02-26T05:13:59.400Z,12.00
2019-02-26T05:14:59.305Z,16.00
2019-02-26T05:15:59.676Z,16.00
2019-02-26T05:16:59.313Z,20.00
2019-02-26T05:17:59.936Z,20.00
2019-02-26T05:19:00.845Z,24.00
2019-02-26T05:19:59.930Z,24.00
2019-02-26T05:21:05.265Z,28.00
2019-02-26T05:22:01.398Z,28.00
2019-02-26T05:23:01.031Z,32.00
2019-02-26T05:24:00.160Z,32.00
2019-02-26T05:24:59.843Z,32.00
2019-02-26T05:26:02.949Z,36.00
2019-02-26T05:26:59.046Z,36.00
2019-02-26T05:27:59.469Z,40.00
2019-02-26T05:30:40.362Z,52.00
2019-02-26T05:31:40.229Z,56.00
2019-02-26T05:32:39.602Z,60.00
2019-02-26T05:33:39.123Z,72.00
2019-02-26T05:34:39.845Z,80.00
2019-02-26T05:35:43.039Z,88.00
2019-02-26T05:36:40.300Z,92.00
2019-02-26T05:37:40.986Z,108.00
2019-02-26T05:38:39.294Z,128.00
2019-02-26T05:39:40.678Z,144.00
2019-02-26T05:40:42.250Z,152.00
2019-02-26T05:41:40.524Z,164.00
2019-02-26T05:42:39.742Z,160.00
2019-02-26T05:43:40.727Z,172.00
2019-02-26T05:44:39.093Z,184.00
2019-02-26T05:45:39.029Z,192.00
2019-02-26T05:46:39.705Z,212.00
2019-02-26T05:47:38.910Z,224.00
2019-02-26T05:48:40.075Z,244.00
2019-02-26T05:49:40.792Z,252.00
2019-02-26T05:50:41.307Z,264.00
2019-02-26T05:51:38.834Z,264.00
2019-02-26T05:52:39.786Z,248.00
2019-02-26T05:53:38.893Z,240.00
2019-02-26T05:54:57.846Z,232.00
2019-02-26T05:56:34.058Z,252.00
2019-02-26T05:57:32.765Z,244.00
2019-02-26T05:58:36.043Z,240.00
2019-02-26T05:59:33.750Z,252.00
2019-02-26T06:00:33.393Z,296.00
2019-02-26T06:01:32.098Z,336.00
2019-02-26T06:02:31.963Z,348.00
2019-02-26T06:03:32.146Z,320.00
2019-02-26T06:04:35.057Z,312.00
2019-02-26T06:05:34.668Z,316.00
2019-02-26T06:06:32.178Z,324.00
2019-02-26T06:07:35.559Z,328.00
2019-02-26T06:08:39.228Z,368.00
2019-02-26T06:09:33.859Z,404.00
2019-02-26T06:10:32.605Z,372.00
2019-02-26T06:11:35.680Z,356.00
2019-02-26T06:12:32.607Z,380.00
2019-02-26T06:13:38.254Z,392.00
2019-02-26T06:14:33.123Z,392.00
2019-02-26T06:15:34.064Z,392.00
2019-02-26T06:16:31.827Z,472.00
2019-02-26T06:17:31.866Z,556.00
2019-02-26T06:18:31.764Z,508.00
2019-02-26T06:19:34.291Z,440.00
2019-02-26T06:20:33.985Z,436.00
2019-02-26T06:21:31.696Z,504.00
2019-02-26T06:22:34.553Z,500.00
2019-02-26T06:23:36.737Z,476.00
2019-02-26T06:24:33.173Z,428.00
2019-02-26T06:25:31.551Z,468.00
2019-02-26T06:26:33.374Z,564.00
2019-02-26T06:27:31.955Z,692.00
2019-02-26T06:28:35.503Z,672.00
2019-02-26T06:29:35.086Z,620.00
2019-02-26T06:30:32.259Z,716.00
2019-02-26T06:31:31.471Z,704.00
2019-02-26T06:32:34.269Z,680.00
2019-02-26T06:33:34.087Z,608.00
2019-02-26T06:34:36.309Z,560.00
2019-02-26T06:35:33.768Z,556.00
2019-02-26T06:36:53.461Z,592.00
2019-02-26T06:37:33.846Z,636.00
2019-02-26T06:38:32.780Z,712.00
2019-02-26T06:39:33.981Z,736.00
2019-02-26T06:40:34.524Z,836.00
2019-02-26T06:41:34.215Z,1028.00
2019-02-26T06:42:33.219Z,1064.00
2019-02-26T06:43:45.646Z,1120.00
2019-02-26T06:45:33.307Z,972.00
2019-02-26T06:46:31.929Z,932.00
2019-02-26T06:47:33.201Z,952.00
2019-02-26T06:48:32.333Z,992.00
2019-02-26T06:49:31.410Z,1076.00
2019-02-26T06:50:31.830Z,1132.00
2019-02-26T06:51:31.547Z,1120.00
2019-02-26T06:52:35.088Z,1212.00
2019-02-26T06:53:31.362Z,1228.00
2019-02-26T06:54:31.803Z,1288.00
2019-02-26T06:55:31.694Z,1392.00
2019-02-26T06:56:34.476Z,1480.00
2019-02-26T06:57:38.830Z,1464.00
2019-02-26T06:58:40.430Z,1520.00
2019-02-26T06:59:34.471Z,1524.00
2019-02-26T07:00:32.279Z,1524.00
2019-02-26T07:01:32.756Z,1636.00
2019-02-26T07:02:31.825Z,1780.00
2019-02-26T07:03:31.061Z,1960.00
2019-02-26T07:04:31.787Z,2140.00
2019-02-26T07:05:31.780Z,2312.00
2019-02-26T07:07:31.128Z,2476.00
2019-02-26T07:08:31.169Z,2392.00
2019-02-26T07:09:32.423Z,2336.00
2019-02-26T07:10:33.650Z,2284.00
2019-02-26T07:11:33.145Z,2284.00
2019-02-26T07:12:33.462Z,2212.00
2019-02-26T07:13:33.761Z,2076.00
2019-02-26T07:15:33.474Z,2336.00
2019-02-26T07:16:32.916Z,2296.00
2019-02-26T07:17:33.787Z,2472.00
2019-02-26T07:18:33.790Z,2496.00
2019-02-26T07:19:36.330Z,2664.00
2019-02-26T07:21:33.807Z,2696.00
2019-02-26T07:22:34.403Z,2832.00
2019-02-26T07:24:30.815Z,2460.00
2019-02-26T07:25:31.791Z,2412.00
2019-02-26T07:26:30.867Z,2220.00
2019-02-26T07:27:32.009Z,2204.00
2019-02-26T07:28:31.343Z,2176.00
2019-02-26T07:29:32.833Z,2128.00
2019-02-26T07:30:35.334Z,2168.00
2019-02-26T07:31:47.320Z,2036.00
2019-02-26T07:32:32.317Z,2092.00
2019-02-26T07:33:34.641Z,2104.00
2019-02-26T07:34:30.602Z,2264.00
2019-02-26T07:36:30.925Z,2320.00
2019-02-26T07:37:34.038Z,2392.00
2019-02-26T07:38:30.813Z,2400.00
2019-02-26T07:39:32.926Z,2404.00
2019-02-26T07:40:32.915Z,2564.00
2019-02-26T07:41:30.693Z,2660.00
2019-02-26T07:42:32.764Z,2632.00
2019-02-26T07:43:31.351Z,2500.00
2019-02-26T07:44:32.310Z,2624.00
2019-02-26T07:45:34.234Z,2716.00
2019-02-26T07:46:30.603Z,2820.00
2019-02-26T07:47:38.443Z,2832.00
2019-02-26T07:48:33.665Z,3008.00
2019-02-26T07:49:46.392Z,3220.00
2019-02-26T07:50:37.356Z,3684.00
2019-02-26T07:51:31.734Z,4396.00
2019-02-26T07:52:31.273Z,4660.00
2019-02-26T07:53:44.385Z,4876.00
2019-02-26T07:54:33.497Z,4052.00
2019-02-26T07:55:32.792Z,3844.00
2019-02-26T07:56:44.764Z,4508.00
2019-02-26T07:57:30.331Z,4708.00
2019-02-26T07:58:35.977Z,5312.00
2019-02-26T07:59:32.425Z,5648.00
2019-02-26T08:00:30.508Z,5492.00
2019-02-26T08:01:30.579Z,5568.00
2019-02-26T08:02:32.082Z,7084.00
2019-02-26T08:03:30.450Z,10540.00
2019-02-26T08:05:32.500Z,8356.00
2019-02-26T08:06:31.667Z,9172.00
2019-02-26T08:07:32.199Z,11848.00
2019-02-26T08:08:42.053Z,11724.00
2019-02-26T08:09:32.025Z,11048.00
2019-02-26T08:11:53.109Z,8388.00
2019-02-26T08:12:32.864Z,14984.00
2019-02-26T08:13:40.443Z,9040.00
2019-02-26T08:15:35.637Z,7284.00
2019-02-26T08:17:55.410Z,6348.00
2019-02-26T08:18:31.879Z,5984.00
2019-02-26T08:19:30.763Z,5608.00
2019-02-26T08:20:33.008Z,6008.00
2019-02-26T08:23:01.336Z,6576.00
2019-02-26T08:23:54.536Z,7208.00
2019-02-26T08:24:55.423Z,8520.00
2019-02-26T08:26:52.389Z,11176.00
2019-02-26T08:28:52.118Z,10120.00
2019-02-26T08:29:54.697Z,12012.00
2019-02-26T08:30:52.904Z,8424.00
2019-02-26T08:31:54.516Z,8904.00
2019-02-26T08:32:54.304Z,11204.00
2019-02-26T08:33:52.279Z,16096.00
2019-02-26T08:34:52.490Z,18528.00
2019-02-26T08:35:55.502Z,11728.00
2019-02-26T08:36:53.880Z,10872.00
2019-02-26T08:37:53.505Z,8368.00
2019-02-26T08:38:56.375Z,7604.00
2019-02-26T08:39:52.053Z,7308.00
2019-02-26T08:41:14.455Z,7176.00
2019-02-26T08:41:52.290Z,6948.00
2019-02-26T08:42:54.947Z,7112.00
2019-02-26T08:44:15.280Z,6956.00
2019-02-26T08:44:58.122Z,6684.00
2019-02-26T08:45:52.059Z,7308.00
2019-02-26T08:46:58.763Z,8456.00
2019-02-26T08:48:22.266Z,6312.00
2019-02-26T08:48:55.880Z,5812.00
2019-02-26T08:49:51.666Z,5572.00
2019-02-26T08:51:09.039Z,5504.00
2019-02-26T08:51:55.631Z,4852.00
2019-02-26T08:53:12.762Z,4316.00
2019-02-26T08:53:54.684Z,4224.00
2019-02-26T08:54:53.414Z,4984.00
2019-02-26T08:55:53.609Z,6088.00
2019-02-26T08:56:58.850Z,5840.00
2019-02-26T08:57:56.415Z,5384.00
2019-02-26T08:58:51.717Z,4980.00
2019-02-26T08:59:52.272Z,5320.00
2019-02-26T09:00:51.583Z,5244.00
2019-02-26T09:01:52.623Z,4560.00
2019-02-26T09:03:01.373Z,3936.00
2019-02-26T09:03:55.814Z,4392.00
2019-02-26T09:04:51.593Z,4468.00
2019-02-26T09:05:53.943Z,4240.00
2019-02-26T09:06:54.683Z,3644.00
2019-02-26T09:07:51.614Z,3496.00
2019-02-26T09:08:52.337Z,3148.00
2019-02-26T09:10:03.477Z,3144.00
2019-02-26T09:11:08.643Z,3320.00
2019-02-26T09:12:15.123Z,3132.00
2019-02-26T09:12:52.380Z,3144.00
2019-02-26T09:13:56.341Z,3156.00
2019-02-26T09:15:06.194Z,2992.00
2019-02-26T09:15:51.654Z,2928.00
2019-02-26T09:16:52.564Z,2844.00
2019-02-26T09:17:52.253Z,2760.00
2019-02-26T09:18:51.715Z,2900.00
2019-02-26T09:19:56.051Z,2888.00
2019-02-26T09:20:52.514Z,3056.00
2019-02-26T09:21:52.477Z,3128.00
2019-02-26T09:22:54.590Z,3192.00
2019-02-26T09:23:54.931Z,3000.00
2019-02-26T09:24:54.460Z,2964.00
2019-02-26T09:25:54.073Z,2856.00
2019-02-26T09:26:54.929Z,2816.00
2019-02-26T09:27:51.406Z,2796.00
2019-02-26T09:28:54.836Z,2888.00
2019-02-26T09:29:51.630Z,2832.00
2019-02-26T09:31:58.907Z,2740.00
2019-02-26T09:32:52.513Z,2688.00
2019-02-26T09:33:54.086Z,2724.00
2019-02-26T09:34:54.262Z,2896.00
2019-02-26T09:35:52.589Z,3040.00
2019-02-26T09:36:55.548Z,3152.00
2019-02-26T09:38:03.866Z,3220.00
2019-02-26T09:38:54.025Z,3296.00
2019-02-26T09:39:53.865Z,3244.00
2019-02-26T09:40:52.429Z,3144.00
2019-02-26T09:42:13.211Z,3132.00
2019-02-26T09:42:54.386Z,2976.00
2019-02-26T09:43:53.568Z,3092.00
2019-02-26T09:44:53.053Z,3092.00
2019-02-26T09:45:52.945Z,2964.00
2019-02-26T09:46:50.999Z,3100.00
2019-02-26T09:47:52.693Z,3196.00
2019-02-26T09:48:51.499Z,3272.00
2019-02-26T09:49:51.607Z,3236.00
2019-02-26T09:50:50.964Z,3600.00
2019-02-26T09:51:51.551Z,4720.00
2019-02-26T09:52:52.673Z,4900.00
2019-02-26T09:53:59.004Z,4532.00
2019-02-26T09:54:52.832Z,4448.00
2019-02-26T09:55:51.009Z,5180.00
2019-02-26T09:56:51.154Z,4836.00
2019-02-26T09:57:50.947Z,5064.00
2019-02-26T09:59:58.147Z,4628.00
2019-02-26T10:00:58.312Z,4164.00
2019-02-26T10:01:53.757Z,4032.00
2019-02-26T10:02:52.692Z,4684.00
2019-02-26T10:04:28.456Z,6044.00
2019-02-26T10:04:51.886Z,5920.00
2019-02-26T10:06:13.618Z,4808.00
2019-02-26T10:06:51.815Z,4856.00
2019-02-26T10:08:12.835Z,4836.00
2019-02-26T10:08:56.094Z,4888.00
2019-02-26T10:10:06.468Z,4944.00
2019-02-26T10:11:16.093Z,4864.00
2019-02-26T10:11:51.764Z,5560.00
2019-02-26T10:12:51.786Z,5056.00
2019-02-26T10:13:57.587Z,4852.00
2019-02-26T10:14:52.332Z,4808.00
2019-02-26T10:15:51.847Z,5340.00
2019-02-26T10:16:56.878Z,5368.00
2019-02-26T10:17:51.387Z,5356.00
2019-02-26T10:18:52.385Z,5104.00
2019-02-26T10:19:51.036Z,4432.00
2019-02-26T10:20:52.270Z,4304.00
2019-02-26T10:21:52.076Z,4112.00
2019-02-26T10:22:52.498Z,4484.00
2019-02-26T10:23:52.169Z,4272.00
2019-02-26T10:25:06.842Z,4212.00
2019-02-26T10:25:53.344Z,4296.00
2019-02-26T10:26:51.196Z,4388.00
2019-02-26T10:28:08.818Z,4512.00
2019-02-26T10:28:57.266Z,4580.00
2019-02-26T10:29:50.487Z,4760.00
2019-02-26T10:30:54.417Z,5464.00
2019-02-26T10:31:50.792Z,6212.00
2019-02-26T10:32:50.503Z,6124.00
2019-02-26T10:34:50.370Z,7620.00
2019-02-26T10:35:51.141Z,7568.00
2019-02-26T10:36:51.870Z,6328.00
2019-02-26T10:37:54.227Z,5352.00
2019-02-26T10:38:57.603Z,6228.00
2019-02-26T10:40:00.315Z,6272.00
2019-02-26T10:40:53.927Z,5880.00
2019-02-26T10:41:57.339Z,5868.00
2019-02-26T10:42:54.274Z,6412.00
2019-02-26T10:43:52.190Z,6912.00
2019-02-26T10:44:50.337Z,6712.00
2019-02-26T10:45:56.207Z,6660.00
2019-02-26T10:47:11.332Z,5884.00
2019-02-26T10:48:52.403Z,5668.00
2019-02-26T10:49:51.885Z,5536.00
2019-02-26T10:50:52.157Z,5712.00
2019-02-26T10:51:50.486Z,5212.00
2019-02-26T10:53:01.448Z,5836.00
2019-02-26T10:53:51.149Z,5560.00
2019-02-26T10:54:50.127Z,5016.00
2019-02-26T10:55:50.656Z,4924.00
2019-02-26T10:56:54.069Z,4936.00
2019-02-26T10:57:50.161Z,4584.00
2019-02-26T10:58:54.747Z,5180.00
2019-02-26T10:59:51.817Z,4996.00
2019-02-26T11:00:52.587Z,4904.00
2019-02-26T11:01:52.322Z,6368.00
2019-02-26T11:02:51.000Z,6432.00
2019-02-26T11:03:52.837Z,5508.00
2019-02-26T11:04:52.712Z,6276.00
2019-02-26T11:06:25.631Z,5888.00
2019-02-26T11:07:08.457Z,6008.00
2019-02-26T11:07:52.548Z,5640.00
2019-02-26T11:08:51.165Z,5488.00
2019-02-26T11:09:53.020Z,5404.00
2019-02-26T11:10:53.656Z,5232.00
2019-02-26T11:11:49.847Z,5408.00
2019-02-26T11:12:50.517Z,6244.00
2019-02-26T11:13:53.773Z,6456.00
2019-02-26T11:14:56.108Z,6660.00
2019-02-26T11:15:51.645Z,6880.00
2019-02-26T11:16:49.837Z,5756.00
2019-02-26T11:17:53.611Z,6120.00
2019-02-26T11:18:49.755Z,6468.00
2019-02-26T11:19:50.035Z,8280.00
2019-02-26T11:22:27.423Z,18304.00
2019-02-26T11:22:52.059Z,8200.00
2019-02-26T11:23:51.701Z,6344.00
2019-02-26T11:26:24.971Z,10392.00
2019-02-26T11:27:22.886Z,11152.00
2019-02-26T11:28:27.309Z,7984.00
2019-02-26T11:29:22.724Z,7352.00
2019-02-26T11:31:25.479Z,10904.00
2019-02-26T11:32:22.726Z,9900.00
2019-02-26T11:34:25.484Z,5956.00
2019-02-26T11:37:08.515Z,6832.00
2019-02-26T11:37:59.035Z,7516.00
2019-02-26T11:39:01.238Z,6648.00
2019-02-26T11:39:57.700Z,6092.00
2019-02-26T11:40:58.876Z,6000.00
2019-02-26T11:42:59.901Z,6164.00
2019-02-26T11:43:58.886Z,6376.00
2019-02-26T11:44:57.561Z,6192.00
2019-02-26T11:46:01.483Z,8084.00
2019-02-26T11:47:57.994Z,8428.00
2019-02-26T11:48:58.917Z,10540.00
2019-02-26T11:50:05.216Z,12180.00
2019-02-26T11:51:01.519Z,38848.00
2019-02-26T11:51:57.291Z,10284.00
2019-02-26T11:52:59.367Z,16480.00
2019-02-26T11:54:14.395Z,11240.00
2019-02-26T11:54:58.720Z,13132.00
2019-02-26T11:55:59.877Z,27648.00
2019-02-26T11:56:59.852Z,9656.00
2019-02-26T11:57:57.326Z,8576.00
2019-02-26T11:59:06.555Z,9352.00
2019-02-26T12:00:06.805Z,9848.00
2019-02-26T12:01:54.226Z,7936.00
2019-02-26T12:02:50.637Z,8360.00
2019-02-26T12:03:50.887Z,10008.00
2019-02-26T12:04:50.964Z,9264.00
2019-02-26T12:05:54.209Z,7668.00
2019-02-26T12:06:50.500Z,8028.00
2019-02-26T12:08:14.164Z,8472.00
2019-02-26T12:08:53.247Z,7724.00
2019-02-26T12:10:05.951Z,8256.00
2019-02-26T12:10:52.271Z,8812.00
2019-02-26T12:12:00.917Z,6828.00
2019-02-26T12:13:14.673Z,6980.00
2019-02-26T12:13:54.160Z,6596.00
2019-02-26T12:15:12.360Z,6788.00
2019-02-26T12:17:19.752Z,6252.00
2019-02-26T12:17:54.146Z,6436.00
2019-02-26T12:18:52.138Z,6512.00
2019-02-26T12:19:51.515Z,6108.00
2019-02-26T12:20:52.246Z,6056.00
2019-02-26T12:21:51.866Z,5372.00
2019-02-26T12:22:55.201Z,4724.00
2019-02-26T12:23:50.368Z,4684.00
2019-02-26T12:24:53.013Z,4728.00
2019-02-26T12:25:52.566Z,5372.00
2019-02-26T12:26:52.502Z,4664.00
2019-02-26T12:27:54.092Z,4624.00
2019-02-26T12:28:52.379Z,4860.00
2019-02-26T12:29:54.379Z,5108.00
2019-02-26T12:31:52.761Z,4708.00
2019-02-26T12:33:07.275Z,5184.00
2019-02-26T12:33:51.469Z,4928.00
2019-02-26T12:34:51.473Z,4736.00
2019-02-26T12:35:50.569Z,5476.00
2019-02-26T12:37:52.755Z,6204.00
2019-02-26T12:38:59.184Z,6872.00
2019-02-26T12:39:57.730Z,5996.00
2019-02-26T12:40:53.407Z,5492.00
2019-02-26T12:41:51.347Z,5652.00
2019-02-26T12:42:51.085Z,5344.00
2019-02-26T12:43:52.958Z,5532.00
2019-02-26T12:44:50.289Z,5140.00
2019-02-26T12:46:04.516Z,4800.00
2019-02-26T12:47:15.441Z,4660.00
2019-02-26T12:47:54.926Z,5184.00
2019-02-26T12:48:52.105Z,4728.00
2019-02-26T12:49:52.580Z,4844.00
2019-02-26T12:50:52.228Z,4288.00
2019-02-26T12:51:50.561Z,4124.00
2019-02-26T12:54:26.876Z,4440.00
2019-02-26T12:54:51.450Z,4156.00
2019-02-26T12:56:11.766Z,4272.00
2019-02-26T12:56:51.550Z,5148.00
2019-02-26T12:57:59.494Z,5164.00
2019-02-26T12:58:54.718Z,5316.00
2019-02-26T12:59:57.031Z,5228.00
2019-02-26T13:00:49.957Z,5244.00
2019-02-26T13:01:51.951Z,5100.00
2019-02-26T13:02:56.582Z,4628.00
2019-02-26T13:05:16.841Z,4404.00
2019-02-26T13:05:51.626Z,3976.00
2019-02-26T13:06:51.997Z,4400.00
2019-02-26T13:07:56.744Z,4072.00
2019-02-26T13:08:52.525Z,3744.00
2019-02-26T13:09:55.960Z,3580.00
2019-02-26T13:10:55.321Z,3632.00
2019-02-26T13:12:01.263Z,3336.00
2019-02-26T13:12:59.007Z,3320.00
2019-02-26T13:13:52.346Z,3276.00
2019-02-26T13:15:06.457Z,3128.00
2019-02-26T13:15:49.799Z,3164.00
2019-02-26T13:16:56.486Z,3168.00
2019-02-26T13:17:54.213Z,3172.00
2019-02-26T13:18:51.560Z,3076.00